Time;durP1;ratioP1;P1;durP2;ratioP2;P2;SDS_P1;SDS_P2;PMS_P1;PMS_P2;Temp;Humidity;BMP_temperature;BMP_pressure;BME280_temperature;BME280_humidity;BME280_pressure;Samples;Min_cycle;Max_cycle;Signal;HPM_P1;HPM_P2
2024/01/24 00:00:12;;;;;;;19.83;3.90;;;;;;;;;;5036314;28;20528;-69
2024/01/24 00:02:39;;;;;;;18.13;3.67;;;;;;;;;;5018546;28;20207;-69
2024/01/24 00:05:23;;;;;;;12.90;3.77;;;;;;;;;;5021489;28;20194;-69
2024/01/24 00:07:50;;;;;;;17.60;3.80;;;;;;;;;;5035922;28;20446;-69
2024/01/24 00:10:17;;;;;;;11.90;2.77;;;;;;;;;;5034660;28;20191;-69
2024/01/24 00:12:43;;;;;;;12.17;2.00;;;;;;;;;;5018669;28;20534;-69
2024/01/24 00:15:10;;;;;;;14.87;3.63;;;;;;;;;;5018360;28;20597;-69
2024/01/24 00:17:37;;;;;;;21.27;3.93;;;;;;;;;;5018180;28;20418;-69
2024/01/24 00:20:04;;;;;;;18.43;4.50;;;;;;;;;;5034437;28;20187;-69
2024/01/24 00:22:31;;;;;;;17.30;3.57;;;;;;;;;;5017671;28;20227;-69
2024/01/24 00:24:58;;;;;;;12.03;3.40;;;;;;;;;;5018670;28;20740;-69
2024/01/24 00:27:24;;;;;;;19.73;3.17;;;;;;;;;;5034365;28;20215;-69
2024/01/24 00:29:51;;;;;;;19.03;3.63;;;;;;;;;;5035260;28;20612;-69
2024/01/24 00:32:18;;;;;;;23.43;5.27;;;;;;;;;;5002602;28;20195;-69
2024/01/24 00:34:44;;;;;;;17.40;3.37;;;;;;;;;;5034423;28;20214;-69
2024/01/24 00:37:11;;;;;;;12.80;4.03;;;;;;;;;;5034731;28;20266;-69
2024/01/24 00:39:38;;;;;;;6.60;2.00;;;;;;;;;;5034592;28;20469;-69
2024/01/24 00:42:05;;;;;;;11.87;2.33;;;;;;;;;;5017723;28;20499;-69
2024/01/24 00:44:32;;;;;;;14.80;2.47;;;;;;;;;;5018668;28;20215;-69
2024/01/24 00:46:58;;;;;;;15.50;2.80;;;;;;;;;;5033905;28;20191;-69
2024/01/24 00:49:25;;;;;;;24.60;3.20;;;;;;;;;;5002241;28;20426;-69
2024/01/24 00:51:52;;;;;;;6.17;2.60;;;;;;;;;;5017790;28;20183;-69
2024/01/24 00:54:36;;;;;;;15.93;2.90;;;;;;;;;;5020595;28;20175;-69
2024/01/24 00:57:03;;;;;;;19.10;3.80;;;;;;;;;;5034317;28;20187;-69
2024/01/24 00:59:30;;;;;;;8.33;3.03;;;;;;;;;;5033880;28;20286;-69
2024/01/24 01:01:59;;;;;;;15.40;4.30;;;;;;;;;;5017888;28;20441;-69
2024/01/24 01:04:25;;;;;;;12.83;3.43;;;;;;;;;;5018120;28;20466;-69
2024/01/24 01:06:52;;;;;;;11.93;3.37;;;;;;;;;;5034275;28;20238;-69
2024/01/24 01:09:19;;;;;;;22.90;4.23;;;;;;;;;;5034080;28;20191;-69
2024/01/24 01:11:45;;;;;;;6.70;2.97;;;;;;;;;;5033563;28;20180;-69
2024/01/24 01:46:57;;;;;;;18.63;4.73;;;;;;;;;;4793366;28;23048;-68
2024/01/24 01:49:24;;;;;;;9.67;2.57;;;;;;;;;;5033382;28;20179;-69
2024/01/24 01:51:51;;;;;;;8.83;2.87;;;;;;;;;;5032701;28;20634;-69
2024/01/24 01:54:18;;;;;;;6.80;2.17;;;;;;;;;;5016837;28;20231;-68
2024/01/24 01:56:44;;;;;;;14.17;3.10;;;;;;;;;;5032571;28;20484;-69
2024/01/24 01:59:11;;;;;;;22.40;4.33;;;;;;;;;;5032950;28;20254;-68
2024/01/24 02:01:38;;;;;;;7.80;2.60;;;;;;;;;;5033171;28;20182;-69
2024/01/24 02:04:05;;;;;;;13.23;3.57;;;;;;;;;;5033084;28;20578;-69
2024/01/24 02:06:31;;;;;;;8.13;2.03;;;;;;;;;;5016958;28;20426;-69
2024/01/24 02:08:58;;;;;;;9.53;3.00;;;;;;;;;;5016381;28;20673;-69
2024/01/24 02:11:25;;;;;;;11.87;2.77;;;;;;;;;;5033061;28;20196;-69
2024/01/24 02:13:59;;;;;;;12.00;3.10;;;;;;;;;;5016511;28;20692;-69
2024/01/24 02:16:26;;;;;;;11.10;3.47;;;;;;;;;;5016783;28;20516;-69
2024/01/24 02:18:53;;;;;;;6.70;2.57;;;;;;;;;;5032998;28;20190;-69
2024/01/24 02:21:20;;;;;;;5.13;3.00;;;;;;;;;;5016411;28;21010;-69
2024/01/24 02:23:47;;;;;;;10.83;2.90;;;;;;;;;;5016224;28;20241;-69
2024/01/24 02:26:15;;;;;;;11.63;2.97;;;;;;;;;;5033030;28;20207;-69
2024/01/24 02:28:41;;;;;;;9.57;2.47;;;;;;;;;;5049167;28;20438;-69
2024/01/24 02:31:25;;;;;;;13.07;2.93;;;;;;;;;;5034073;28;20148;-69
2024/01/24 02:33:52;;;;;;;14.93;3.77;;;;;;;;;;5049268;28;20428;-69
2024/01/24 02:36:36;;;;;;;14.80;3.33;;;;;;;;;;5033037;28;20499;-69
2024/01/24 02:39:03;;;;;;;13.47;3.27;;;;;;;;;;5032222;28;20418;-68
2024/01/24 02:41:31;;;;;;;9.33;3.50;;;;;;;;;;5032558;28;20210;-68
2024/01/24 02:43:57;;;;;;;14.93;3.50;;;;;;;;;;5032306;28;20190;-69
2024/01/24 02:46:24;;;;;;;14.27;3.80;;;;;;;;;;5016689;28;20215;-69
2024/01/24 02:49:08;;;;;;;11.87;3.13;;;;;;;;;;5035365;28;20183;-69
2024/01/24 02:51:35;;;;;;;9.73;2.73;;;;;;;;;;5015883;28;20426;-68
2024/01/24 02:54:19;;;;;;;15.10;4.27;;;;;;;;;;5032566;28;20672;-69
2024/01/24 02:56:46;;;;;;;11.23;2.87;;;;;;;;;;5015921;28;20188;-69
2024/01/24 02:59:13;;;;;;;18.13;3.50;;;;;;;;;;5016173;28;20191;-69
2024/01/24 03:01:41;;;;;;;11.37;2.77;;;;;;;;;;5032063;28;20180;-69
2024/01/24 03:04:07;;;;;;;7.00;2.57;;;;;;;;;;5033408;28;20271;-68
2024/01/24 03:06:34;;;;;;;10.73;3.47;;;;;;;;;;5052505;28;20454;-69
2024/01/24 03:09:01;;;;;;;8.27;2.50;;;;;;;;;;5035835;28;20519;-69
2024/01/24 03:11:28;;;;;;;14.20;3.90;;;;;;;;;;5036038;28;20422;-69
2024/01/24 03:13:55;;;;;;;10.80;3.37;;;;;;;;;;5052402;28;20286;-68
2024/01/24 03:16:22;;;;;;;7.80;2.03;;;;;;;;;;5037398;28;20194;-69
2024/01/24 03:18:48;;;;;;;10.70;2.83;;;;;;;;;;5035787;28;20215;-69
2024/01/24 03:25:33;;;;;;;6.93;2.53;;;;;;;;;;5036699;28;20287;-69
2024/01/24 03:28:00;;;;;;;7.37;2.77;;;;;;;;;;5019145;28;20942;-67
2024/01/24 03:30:26;;;;;;;13.40;3.97;;;;;;;;;;5052566;28;20639;-67
2024/01/24 03:32:53;;;;;;;13.10;2.93;;;;;;;;;;5035603;28;20643;-68
2024/01/24 03:35:20;;;;;;;10.87;3.27;;;;;;;;;;5036105;28;20433;-68
2024/01/24 03:37:49;;;;;;;11.43;3.13;;;;;;;;;;5035735;28;20444;-68
2024/01/24 03:40:15;;;;;;;15.23;3.70;;;;;;;;;;5036748;28;20190;-68
2024/01/24 03:42:59;;;;;;;13.33;3.13;;;;;;;;;;5021963;28;20174;-68
2024/01/24 03:45:26;;;;;;;10.40;1.90;;;;;;;;;;5035104;28;20203;-67
2024/01/24 03:47:52;;;;;;;15.67;3.67;;;;;;;;;;5018624;28;20457;-68
2024/01/24 03:50:19;;;;;;;10.10;2.83;;;;;;;;;;5035083;28;20597;-68
2024/01/24 03:52:46;;;;;;;11.30;2.60;;;;;;;;;;5018647;28;20817;-71
2024/01/24 03:55:30;;;;;;;13.10;4.00;;;;;;;;;;5035242;28;20167;-68
2024/01/24 03:57:57;;;;;;;6.37;1.77;;;;;;;;;;5051784;28;20528;-69
2024/01/24 04:00:24;;;;;;;11.27;3.20;;;;;;;;;;5018695;28;20510;-69
2024/01/24 04:02:51;;;;;;;11.00;3.50;;;;;;;;;;5018880;28;20844;-68
2024/01/24 04:05:17;;;;;;;12.93;3.50;;;;;;;;;;5018501;28;20458;-68
2024/01/24 04:07:44;;;;;;;7.30;2.60;;;;;;;;;;5035192;28;20635;-69
2024/01/24 04:10:11;;;;;;;18.57;3.40;;;;;;;;;;5035375;28;20586;-69
2024/01/24 04:12:38;;;;;;;15.10;4.20;;;;;;;;;;5034949;28;20418;-69
2024/01/24 04:15:08;;;;;;;16.17;3.67;;;;;;;;;;5034191;28;20191;-69
2024/01/24 04:17:35;;;;;;;16.20;3.77;;;;;;;;;;5034535;28;20197;-68
2024/01/24 04:20:02;;;;;;;14.67;3.40;;;;;;;;;;5035079;28;20196;-69
2024/01/24 04:22:46;;;;;;;8.33;2.83;;;;;;;;;;5034297;28;20544;-68
2024/01/24 04:25:13;;;;;;;6.60;1.87;;;;;;;;;;5018677;28;20461;-68
2024/01/24 04:27:40;;;;;;;12.50;3.47;;;;;;;;;;5036128;28;20637;-70
2024/01/24 04:30:07;;;;;;;10.43;3.23;;;;;;;;;;5018575;28;20418;-68
2024/01/24 04:32:34;;;;;;;5.13;1.57;;;;;;;;;;5035391;28;20437;-69
2024/01/24 04:35:00;;;;;;;9.70;3.20;;;;;;;;;;5035370;28;20732;-68
2024/01/24 04:37:27;;;;;;;8.87;4.03;;;;;;;;;;5017719;28;20418;-68
2024/01/24 04:39:54;;;;;;;10.50;3.23;;;;;;;;;;5035002;28;20517;-68
2024/01/24 04:42:38;;;;;;;12.00;4.00;;;;;;;;;;5034586;28;20387;-68
2024/01/24 04:45:05;;;;;;;10.70;3.30;;;;;;;;;;5034826;28;20203;-68
2024/01/24 04:47:32;;;;;;;4.03;1.83;;;;;;;;;;5034227;28;20545;-68
2024/01/24 04:49:59;;;;;;;6.17;2.43;;;;;;;;;;5034471;28;20210;-68
2024/01/24 04:52:26;;;;;;;9.27;3.53;;;;;;;;;;5033921;28;20430;-69
2024/01/24 04:54:52;;;;;;;6.43;2.80;;;;;;;;;;5017332;28;20460;-73
2024/01/24 04:57:19;;;;;;;9.07;2.23;;;;;;;;;;5018486;28;20785;-69
2024/01/24 04:59:46;;;;;;;5.77;2.47;;;;;;;;;;5034919;28;20812;-69
2024/01/24 05:02:22;;;;;;;7.00;2.27;;;;;;;;;;5033839;28;20464;-68
2024/01/24 05:04:49;;;;;;;8.00;2.90;;;;;;;;;;5017438;28;20442;-69
2024/01/24 05:07:19;;;;;;;4.90;2.33;;;;;;;;;;5017072;28;20441;-69
2024/01/24 05:10:52;;;;;;;4.83;2.00;;;;;;;;;;5038311;28;20434;-68
2024/01/24 05:13:55;;;;;;;4.67;1.73;;;;;;;;;;5025603;28;20196;-68
2024/01/24 05:20:28;;;;;;;3.00;2.17;;;;;;;;;;5035613;28;20426;-72
2024/01/24 05:23:42;;;;;;;6.97;3.03;;;;;;;;;;5036263;28;20206;-67
2024/01/24 05:26:58;;;;;;;8.37;2.97;;;;;;;;;;5045199;28;20956;-68
2024/01/24 05:30:00;;;;;;;7.50;2.07;;;;;;;;;;5024703;28;20432;-68
2024/01/24 05:33:10;;;;;;;5.20;2.70;;;;;;;;;;5035244;28;20507;-67
2024/01/24 05:35:58;;;;;;;4.30;1.87;;;;;;;;;;5034362;28;20927;-71
2024/01/24 05:38:57;;;;;;;5.50;2.10;;;;;;;;;;5033888;28;20700;-69
2024/01/24 05:41:39;;;;;;;3.60;1.80;;;;;;;;;;5033684;28;20387;-70
2024/01/24 05:47:58;;;;;;;1.53;1.33;;;;;;;;;;5038404;28;20466;-70
2024/01/24 05:50:48;;;;;;;4.10;1.67;;;;;;;;;;5018416;28;20430;-72
2024/01/24 05:54:04;;;;;;;5.37;1.80;;;;;;;;;;5009651;28;20191;-70
2024/01/24 05:56:41;;;;;;;2.17;1.50;;;;;;;;;;5033593;28;20395;-69
2024/01/24 05:59:18;;;;;;;2.83;1.30;;;;;;;;;;5037086;28;20195;-69
2024/01/24 06:05:45;;;;;;;3.33;1.53;;;;;;;;;;5049935;28;20553;-68
2024/01/24 06:08:43;;;;;;;5.43;2.27;;;;;;;;;;5053278;28;20170;-68
2024/01/24 06:11:48;;;;;;;3.73;1.80;;;;;;;;;;5051961;28;20198;-68
2024/01/24 06:18:14;;;;;;;3.47;1.97;;;;;;;;;;5033745;28;20166;-68
2024/01/24 06:20:41;;;;;;;5.13;1.60;;;;;;;;;;5032768;28;20504;-69
2024/01/24 06:23:08;;;;;;;5.37;1.77;;;;;;;;;;5032736;28;20897;-68
2024/01/24 06:25:35;;;;;;;5.27;2.53;;;;;;;;;;5049197;28;20249;-68
2024/01/24 06:28:19;;;;;;;5.00;2.30;;;;;;;;;;5035819;28;20171;-69
2024/01/24 06:30:47;;;;;;;6.83;2.10;;;;;;;;;;5048836;28;20187;-69
2024/01/24 06:33:13;;;;;;;4.87;1.97;;;;;;;;;;5034031;28;20194;-69
2024/01/24 06:35:40;;;;;;;2.10;1.20;;;;;;;;;;5032499;28;20729;-68
2024/01/24 06:38:07;;;;;;;3.47;2.20;;;;;;;;;;5037467;28;20434;-68
2024/01/24 06:40:34;;;;;;;3.37;1.60;;;;;;;;;;5056219;28;20432;-68
2024/01/24 06:43:00;;;;;;;3.53;1.67;;;;;;;;;;5072986;28;20425;-69
2024/01/24 06:45:27;;;;;;;4.17;1.50;;;;;;;;;;5073068;28;20449;-69
2024/01/24 06:47:54;;;;;;;2.33;1.30;;;;;;;;;;5072508;28;20307;-69
2024/01/24 06:50:21;;;;;;;3.77;1.50;;;;;;;;;;5073129;28;20193;-69
2024/01/24 06:52:48;;;;;;;8.33;1.67;;;;;;;;;;5056179;28;20202;-69
2024/01/24 06:55:15;;;;;;;1.77;1.30;;;;;;;;;;5056457;28;20419;-69
2024/01/24 06:57:43;;;;;;;3.40;1.20;;;;;;;;;;5056802;28;20444;-69
2024/01/24 07:04:11;;;;;;;1.73;1.10;;;;;;;;;;5037733;28;20190;-70
2024/01/24 07:06:38;;;;;;;3.70;1.47;;;;;;;;;;5036217;28;20461;-69
2024/01/24 07:09:23;;;;;;;2.23;1.27;;;;;;;;;;5037526;28;20163;-69
2024/01/24 07:11:50;;;;;;;6.17;2.00;;;;;;;;;;5036459;28;20191;-69
2024/01/24 07:14:17;;;;;;;2.73;2.00;;;;;;;;;;5035892;28;20437;-69
2024/01/24 07:16:44;;;;;;;1.57;1.13;;;;;;;;;;5035944;28;20196;-69
2024/01/24 07:19:11;;;;;;;3.43;1.70;;;;;;;;;;5019878;28;20525;-69
2024/01/24 07:21:39;;;;;;;1.13;0.90;;;;;;;;;;5036069;28;20179;-69
2024/01/24 07:24:06;;;;;;;2.77;1.73;;;;;;;;;;5020002;28;20219;-69
2024/01/24 07:26:34;;;;;;;2.53;0.90;;;;;;;;;;5019353;28;20207;-69
2024/01/24 07:29:00;;;;;;;2.73;1.80;;;;;;;;;;5036133;28;20179;-69
2024/01/24 07:31:28;;;;;;;4.03;1.57;;;;;;;;;;5035495;28;20183;-69
2024/01/24 07:33:55;;;;;;;3.10;1.87;;;;;;;;;;5052134;28;20197;-70
2024/01/24 07:36:22;;;;;;;1.43;1.13;;;;;;;;;;5051431;28;20190;-69
2024/01/24 07:38:49;;;;;;;1.33;0.73;;;;;;;;;;5071951;28;20236;-69
2024/01/24 07:41:15;;;;;;;1.67;1.27;;;;;;;;;;5055383;28;20195;-69
2024/01/24 07:43:42;;;;;;;2.00;1.67;;;;;;;;;;5071744;28;20514;-70
2024/01/24 07:46:09;;;;;;;1.93;1.17;;;;;;;;;;5055047;28;20293;-70
2024/01/24 07:48:36;;;;;;;2.93;1.60;;;;;;;;;;5055441;28;20249;-70
2024/01/24 07:51:03;;;;;;;2.60;1.67;;;;;;;;;;5054424;28;20687;-70
2024/01/24 07:53:30;;;;;;;1.90;1.53;;;;;;;;;;5039062;28;20198;-69
2024/01/24 07:55:59;;;;;;;2.23;1.87;;;;;;;;;;5056216;28;20186;-69
2024/01/24 07:58:44;;;;;;;1.60;1.07;;;;;;;;;;5041336;28;20194;-69
2024/01/24 08:05:14;;;;;;;3.43;1.63;;;;;;;;;;5056011;28;20707;-70
2024/01/24 08:11:40;;;;;;;3.27;1.77;;;;;;;;;;5055988;28;20154;-71
2024/01/24 08:14:08;;;;;;;1.83;1.50;;;;;;;;;;5055637;28;20594;-70
2024/01/24 08:16:35;;;;;;;2.70;2.17;;;;;;;;;;5054948;28;20649;-70
2024/01/24 08:19:02;;;;;;;3.20;2.13;;;;;;;;;;5071014;28;20573;-71
2024/01/24 08:21:30;;;;;;;2.17;1.63;;;;;;;;;;5056864;28;20190;-68
2024/01/24 08:24:14;;;;;;;3.53;1.97;;;;;;;;;;5055951;28;20190;-70
2024/01/24 08:26:41;;;;;;;3.20;1.20;;;;;;;;;;5054633;28;20273;-70
2024/01/24 08:29:10;;;;;;;3.23;1.47;;;;;;;;;;5056055;28;20213;-70
2024/01/24 08:31:47;;;;;;;2.73;1.33;;;;;;;;;;5039531;28;20687;-70
2024/01/24 08:34:32;;;;;;;2.23;1.60;;;;;;;;;;5068462;28;20321;-69
2024/01/24 08:36:59;;;;;;;2.07;1.07;;;;;;;;;;5071446;28;20182;-70
2024/01/24 08:39:26;;;;;;;4.23;1.60;;;;;;;;;;5055583;28;20533;-70
2024/01/24 08:41:53;;;;;;;2.10;1.27;;;;;;;;;;5070879;28;20179;-70
2024/01/24 08:44:20;;;;;;;1.23;0.90;;;;;;;;;;5070510;28;20182;-70
2024/01/24 08:47:04;;;;;;;1.33;0.97;;;;;;;;;;5068078;28;20187;-70
2024/01/24 08:49:31;;;;;;;1.80;1.57;;;;;;;;;;5071265;28;20198;-70
2024/01/24 08:51:58;;;;;;;2.70;1.70;;;;;;;;;;5037562;28;20190;-70
2024/01/24 08:54:26;;;;;;;1.13;1.00;;;;;;;;;;5070249;28;20630;-69
2024/01/24 08:56:53;;;;;;;1.70;0.97;;;;;;;;;;5053813;28;20179;-69
2024/01/24 08:59:20;;;;;;;1.70;1.13;;;;;;;;;;5054072;28;20213;-70
2024/01/24 09:01:47;;;;;;;1.87;1.30;;;;;;;;;;5054913;28;20614;-70
2024/01/24 09:04:14;;;;;;;0.80;0.67;;;;;;;;;;5053836;28;20187;-70
2024/01/24 09:06:44;;;;;;;3.07;2.07;;;;;;;;;;5070754;28;20263;-70
2024/01/24 09:09:14;;;;;;;2.20;1.57;;;;;;;;;;5053505;28;20201;-70
2024/01/24 09:11:42;;;;;;;1.80;1.57;;;;;;;;;;5037576;28;20187;-71
2024/01/24 09:14:22;;;;;;;2.27;1.20;;;;;;;;;;5069403;28;20510;-70
2024/01/24 09:16:48;;;;;;;2.30;1.73;;;;;;;;;;5054200;28;20237;-70
2024/01/24 09:19:17;;;;;;;3.27;2.50;;;;;;;;;;5053494;28;20277;-71
2024/01/24 09:21:44;;;;;;;3.93;2.57;;;;;;;;;;5037313;28;20183;-71
2024/01/24 09:24:11;;;;;;;2.33;2.07;;;;;;;;;;5070039;28;20229;-70
2024/01/24 09:26:38;;;;;;;2.53;2.13;;;;;;;;;;5069661;28;20210;-71
2024/01/24 09:29:06;;;;;;;1.97;1.37;;;;;;;;;;5037078;28;20226;-71
2024/01/24 09:31:32;;;;;;;1.53;1.10;;;;;;;;;;5036817;28;20634;-70
2024/01/24 09:33:59;;;;;;;1.90;1.40;;;;;;;;;;5069524;28;20191;-70
2024/01/24 09:36:27;;;;;;;8.70;2.50;;;;;;;;;;5069803;28;20191;-71
2024/01/24 09:38:54;;;;;;;2.30;1.40;;;;;;;;;;5053286;28;20240;-70
2024/01/24 09:41:21;;;;;;;2.53;1.70;;;;;;;;;;5053460;28;20195;-70
2024/01/24 09:43:48;;;;;;;2.40;1.37;;;;;;;;;;5020319;28;20218;-69
2024/01/24 09:46:18;;;;;;;1.73;1.17;;;;;;;;;;5053324;28;20203;-69
2024/01/24 09:48:45;;;;;;;4.67;2.13;;;;;;;;;;5052739;28;20222;-70
2024/01/24 09:51:12;;;;;;;5.87;3.53;;;;;;;;;;5069771;28;20183;-70
2024/01/24 09:53:39;;;;;;;5.70;2.43;;;;;;;;;;5069843;28;20534;-70
2024/01/24 09:56:23;;;;;;;7.83;3.00;;;;;;;;;;5053163;28;20216;-69
2024/01/24 09:58:52;;;;;;;3.77;1.90;;;;;;;;;;5069501;28;20662;-70
2024/01/24 10:01:39;;;;;;;4.33;1.70;;;;;;;;;;5052720;28;20622;-69
2024/01/24 10:04:06;;;;;;;6.87;2.80;;;;;;;;;;5053204;28;20224;-70
2024/01/24 10:06:36;;;;;;;13.00;3.70;;;;;;;;;;5069282;28;20203;-71
2024/01/24 10:09:05;;;;;;;6.20;3.17;;;;;;;;;;5036233;28;20201;-70
2024/01/24 10:11:34;;;;;;;7.33;2.50;;;;;;;;;;5053369;28;20175;-71
2024/01/24 10:14:01;;;;;;;9.60;3.57;;;;;;;;;;5052074;28;20213;-71
2024/01/24 10:16:28;;;;;;;8.43;3.00;;;;;;;;;;5036082;28;20194;-71
2024/01/24 10:18:55;;;;;;;13.33;2.67;;;;;;;;;;5069261;28;20179;-70
2024/01/24 10:21:23;;;;;;;12.10;3.90;;;;;;;;;;5069413;28;20611;-71
2024/01/24 10:23:59;;;;;;;14.60;2.93;;;;;;;;;;5036158;28;20186;-71
2024/01/24 10:26:46;;;;;;;25.93;4.37;;;;;;;;;;5038736;28;20190;-71
2024/01/24 10:29:13;;;;;;;26.20;4.90;;;;;;;;;;5053094;28;20185;-71
2024/01/24 10:31:41;;;;;;;19.10;4.50;;;;;;;;;;5036101;28;20217;-71
2024/01/24 10:34:08;;;;;;;22.30;4.53;;;;;;;;;;5015990;28;20179;-71
2024/01/24 10:36:38;;;;;;;26.70;4.67;;;;;;;;;;5032687;28;20203;-71
2024/01/24 10:39:23;;;;;;;23.40;4.63;;;;;;;;;;5047088;28;20152;-71
2024/01/24 10:41:52;;;;;;;19.30;3.30;;;;;;;;;;5032456;28;20183;-70
2024/01/24 10:44:20;;;;;;;16.93;3.60;;;;;;;;;;5066585;28;20191;-70
2024/01/24 10:46:47;;;;;;;21.17;3.60;;;;;;;;;;5032396;28;20200;-71
2024/01/24 10:49:15;;;;;;;17.67;4.10;;;;;;;;;;5049209;28;20223;-71
2024/01/24 10:51:43;;;;;;;21.23;4.03;;;;;;;;;;5048748;28;20187;-71
2024/01/24 10:54:10;;;;;;;18.67;3.57;;;;;;;;;;5049296;28;20187;-70
2024/01/24 10:56:37;;;;;;;12.60;3.00;;;;;;;;;;5032382;28;20195;-71
2024/01/24 10:59:04;;;;;;;17.07;3.47;;;;;;;;;;5033871;28;20234;-70
2024/01/24 11:01:31;;;;;;;16.47;2.80;;;;;;;;;;5048534;28;20210;-71
2024/01/24 11:03:58;;;;;;;23.23;4.33;;;;;;;;;;5033534;28;20183;-71
2024/01/24 11:06:25;;;;;;;15.37;3.00;;;;;;;;;;5031983;28;20219;-70
2024/01/24 11:08:56;;;;;;;17.50;4.33;;;;;;;;;;5032001;28;20220;-71
2024/01/24 11:11:23;;;;;;;25.50;4.50;;;;;;;;;;5065077;28;20168;-70
2024/01/24 11:13:50;;;;;;;18.10;4.13;;;;;;;;;;5049023;28;20183;-70
2024/01/24 11:16:30;;;;;;;20.50;3.60;;;;;;;;;;5032257;28;20302;-71
2024/01/24 11:18:58;;;;;;;20.77;3.17;;;;;;;;;;5031932;28;20184;-70
2024/01/24 11:21:27;;;;;;;16.73;4.27;;;;;;;;;;5031944;28;20186;-71
2024/01/24 11:23:54;;;;;;;20.40;3.17;;;;;;;;;;5048710;28;20187;-70
2024/01/24 11:26:21;;;;;;;16.33;3.17;;;;;;;;;;5051495;28;20191;-71
2024/01/24 11:28:48;;;;;;;22.30;3.90;;;;;;;;;;5036972;28;20191;-71
2024/01/24 11:31:15;;;;;;;18.70;4.00;;;;;;;;;;5035563;28;20191;-71
2024/01/24 11:34:01;;;;;;;14.50;2.97;;;;;;;;;;5052396;28;20195;-70
2024/01/24 11:36:28;;;;;;;24.37;3.87;;;;;;;;;;5037198;28;20198;-71
2024/01/24 11:38:55;;;;;;;20.00;3.73;;;;;;;;;;5035889;28;20202;-71
2024/01/24 11:41:24;;;;;;;27.57;4.20;;;;;;;;;;5068430;28;20309;-72
2024/01/24 11:43:50;;;;;;;26.57;4.47;;;;;;;;;;5035250;28;20215;-71
2024/01/24 11:46:35;;;;;;;15.77;3.43;;;;;;;;;;5049461;28;20152;-71
2024/01/24 11:49:05;;;;;;;23.47;4.23;;;;;;;;;;5035013;28;20219;-71
2024/01/24 11:51:59;;;;;;;22.77;3.93;;;;;;;;;;5035360;28;20167;-71
2024/01/24 11:54:28;;;;;;;12.57;2.67;;;;;;;;;;5051720;28;20530;-70
2024/01/24 11:56:57;;;;;;;24.30;4.30;;;;;;;;;;5037058;28;20266;-71
2024/01/24 11:59:24;;;;;;;17.20;3.83;;;;;;;;;;5035218;28;20241;-71
2024/01/24 12:01:51;;;;;;;20.50;3.90;;;;;;;;;;5069078;28;20183;-70
2024/01/24 12:04:17;;;;;;;18.87;4.00;;;;;;;;;;5035217;28;20515;-71
2024/01/24 12:06:44;;;;;;;27.77;5.13;;;;;;;;;;5051363;28;20199;-70
2024/01/24 12:09:12;;;;;;;16.53;3.77;;;;;;;;;;5035590;28;20194;-69
2024/01/24 12:11:56;;;;;;;25.23;4.47;;;;;;;;;;5036768;28;20195;-71
2024/01/24 12:14:23;;;;;;;23.60;4.30;;;;;;;;;;5036350;28;20188;-71
2024/01/24 12:16:50;;;;;;;25.83;5.40;;;;;;;;;;5051687;28;20191;-70
2024/01/24 12:19:18;;;;;;;19.87;3.93;;;;;;;;;;5034814;28;20189;-70
2024/01/24 12:21:45;;;;;;;24.80;4.47;;;;;;;;;;5067989;28;20195;-70
2024/01/24 12:24:29;;;;;;;30.53;4.23;;;;;;;;;;5049339;28;20241;-70
2024/01/24 12:26:59;;;;;;;28.00;4.63;;;;;;;;;;5034941;28;20222;-70
2024/01/24 12:29:43;;;;;;;20.27;3.20;;;;;;;;;;5034603;28;20613;-70
2024/01/24 12:32:11;;;;;;;22.93;4.53;;;;;;;;;;5051163;28;20195;-71
2024/01/24 12:34:39;;;;;;;24.90;4.43;;;;;;;;;;5034823;28;20213;-70
2024/01/24 12:37:06;;;;;;;20.43;3.90;;;;;;;;;;5050901;28;20195;-71
2024/01/24 12:39:34;;;;;;;22.57;4.30;;;;;;;;;;5034710;28;20291;-70
2024/01/24 12:42:02;;;;;;;27.27;5.80;;;;;;;;;;5034986;28;20270;-71
2024/01/24 12:44:29;;;;;;;23.83;4.67;;;;;;;;;;5034136;28;20588;-70
2024/01/24 12:46:56;;;;;;;31.10;3.80;;;;;;;;;;5050865;28;20230;-71
2024/01/24 12:49:24;;;;;;;21.43;3.80;;;;;;;;;;5034846;28;20187;-70
2024/01/24 12:51:52;;;;;;;19.20;3.87;;;;;;;;;;5034815;28;20262;-71
2024/01/24 12:54:19;;;;;;;23.90;3.77;;;;;;;;;;5034325;28;20184;-70
2024/01/24 12:56:47;;;;;;;20.40;3.53;;;;;;;;;;5033884;28;20287;-70
2024/01/24 12:59:14;;;;;;;19.10;3.60;;;;;;;;;;5051455;28;20206;-71
2024/01/24 13:01:43;;;;;;;14.30;3.27;;;;;;;;;;5033929;28;20195;-70
2024/01/24 13:04:11;;;;;;;21.60;3.60;;;;;;;;;;5034026;28;20184;-69
2024/01/24 13:06:40;;;;;;;15.43;3.60;;;;;;;;;;5035029;28;20176;-71
2024/01/24 13:09:08;;;;;;;14.87;3.60;;;;;;;;;;5066988;28;20192;-70
2024/01/24 13:11:53;;;;;;;14.50;2.70;;;;;;;;;;5062998;28;20191;-71
2024/01/24 13:14:21;;;;;;;16.93;3.80;;;;;;;;;;5034057;28;20620;-71
2024/01/24 13:16:50;;;;;;;14.90;3.67;;;;;;;;;;5034656;28;20186;-68
2024/01/24 13:19:17;;;;;;;18.73;3.30;;;;;;;;;;5033987;28;20519;-70
2024/01/24 13:21:44;;;;;;;18.47;3.73;;;;;;;;;;5050007;28;20199;-71
2024/01/24 13:24:12;;;;;;;25.13;5.43;;;;;;;;;;5033872;28;20191;-71
2024/01/24 13:26:38;;;;;;;22.57;4.03;;;;;;;;;;5049760;28;20197;-70
2024/01/24 13:29:06;;;;;;;24.97;4.70;;;;;;;;;;5048491;28;20550;-70
2024/01/24 13:31:34;;;;;;;30.93;5.60;;;;;;;;;;5033304;28;20206;-70
2024/01/24 13:34:01;;;;;;;18.90;3.60;;;;;;;;;;5033284;28;20516;-70
2024/01/24 13:36:28;;;;;;;18.03;4.17;;;;;;;;;;5016980;28;20187;-69
2024/01/24 13:38:55;;;;;;;28.70;4.40;;;;;;;;;;5034310;28;20230;-69
2024/01/24 13:41:23;;;;;;;23.67;4.07;;;;;;;;;;5016977;28;20199;-69
2024/01/24 13:43:52;;;;;;;29.20;5.37;;;;;;;;;;5017491;28;20191;-69
2024/01/24 13:46:19;;;;;;;23.10;5.07;;;;;;;;;;5032975;28;20198;-70
2024/01/24 13:48:46;;;;;;;24.83;4.83;;;;;;;;;;5015944;28;20227;-69
2024/01/24 13:51:16;;;;;;;23.33;4.37;;;;;;;;;;5001244;28;20203;-69
2024/01/24 13:54:00;;;;;;;19.63;4.73;;;;;;;;;;5033581;28;20158;-69
2024/01/24 13:56:27;;;;;;;25.23;4.47;;;;;;;;;;5016796;28;20665;-70
2024/01/24 13:59:11;;;;;;;26.27;4.37;;;;;;;;;;5033215;28;20175;-69
2024/01/24 14:01:38;;;;;;;20.60;4.10;;;;;;;;;;5032988;28;20526;-70
2024/01/24 14:04:14;;;;;;;20.07;2.80;;;;;;;;;;5018473;28;20175;-69
2024/01/24 14:06:41;;;;;;;17.87;3.30;;;;;;;;;;5032478;28;20638;-70
2024/01/24 14:09:10;;;;;;;19.80;3.87;;;;;;;;;;5033746;28;20213;-69
2024/01/24 14:16:01;;;;;;;9.20;2.37;;;;;;;;;;5045908;28;20165;-70
2024/01/24 14:18:28;;;;;;;10.80;2.97;;;;;;;;;;5050571;28;20186;-70
2024/01/24 14:24:05;;;;;;;11.03;2.30;;;;;;;;;;5050316;28;20545;-70
2024/01/24 14:26:32;;;;;;;10.57;2.10;;;;;;;;;;5020225;28;20195;-70
2024/01/24 14:28:59;;;;;;;12.23;2.50;;;;;;;;;;5031594;28;20277;-70
2024/01/24 14:35:30;;;;;;;14.67;2.77;;;;;;;;;;5052624;28;20560;-71
2024/01/24 14:37:58;;;;;;;10.10;2.57;;;;;;;;;;5052555;28;20198;-69
2024/01/24 14:40:42;;;;;;;8.63;1.97;;;;;;;;;;5038552;28;20159;-70
2024/01/24 14:47:27;;;;;;;7.67;1.80;;;;;;;;;;5050754;28;20197;-69
2024/01/24 14:49:53;;;;;;;12.87;2.93;;;;;;;;;;5052709;28;20196;-70
2024/01/24 14:52:20;;;;;;;17.80;4.20;;;;;;;;;;5052082;28;20187;-69
2024/01/24 14:58:47;;;;;;;10.57;2.80;;;;;;;;;;5054094;28;20268;-69
2024/01/24 15:01:19;;;;;;;18.27;3.73;;;;;;;;;;5040241;28;20175;-70
2024/01/24 15:03:47;;;;;;;12.80;2.40;;;;;;;;;;5056027;28;20178;-69
2024/01/24 15:06:14;;;;;;;21.53;4.47;;;;;;;;;;5038134;28;20198;-70
2024/01/24 15:08:41;;;;;;;14.93;3.23;;;;;;;;;;5017925;28;20662;-70
2024/01/24 15:11:23;;;;;;;12.00;3.23;;;;;;;;;;5060015;28;20274;-70
2024/01/24 15:13:50;;;;;;;9.70;2.40;;;;;;;;;;5014232;28;20192;-69
2024/01/24 15:16:17;;;;;;;11.03;2.33;;;;;;;;;;5061731;28;20228;-69
2024/01/24 15:18:45;;;;;;;10.70;2.77;;;;;;;;;;5054417;28;20588;-69
2024/01/24 15:25:11;;;;;;;16.20;3.20;;;;;;;;;;5056739;28;20190;-71
2024/01/24 15:27:39;;;;;;;9.83;2.60;;;;;;;;;;5055270;28;20268;-71
2024/01/24 15:30:06;;;;;;;12.93;2.53;;;;;;;;;;5039211;28;20190;-70
2024/01/24 15:32:33;;;;;;;18.27;4.03;;;;;;;;;;5035581;28;20191;-70
2024/01/24 15:35:00;;;;;;;18.80;3.30;;;;;;;;;;5051767;28;20210;-68
2024/01/24 15:37:27;;;;;;;17.17;3.43;;;;;;;;;;5035241;28;20191;-68
2024/01/24 15:39:55;;;;;;;18.10;3.37;;;;;;;;;;5052553;28;20199;-69
2024/01/24 15:46:24;;;;;;;17.03;3.37;;;;;;;;;;5036531;28;20187;-68
2024/01/24 15:48:52;;;;;;;13.63;2.90;;;;;;;;;;5036713;28;20219;-67
2024/01/24 15:51:19;;;;;;;12.63;2.63;;;;;;;;;;5034899;28;20192;-68
2024/01/24 15:53:46;;;;;;;9.30;2.07;;;;;;;;;;5035480;28;20520;-68
2024/01/24 15:56:13;;;;;;;17.40;3.13;;;;;;;;;;5035188;28;20188;-67
2024/01/24 15:58:40;;;;;;;15.50;3.27;;;;;;;;;;5034886;28;20214;-68
2024/01/24 16:01:07;;;;;;;15.70;3.07;;;;;;;;;;5035651;28;20488;-68
2024/01/24 16:03:36;;;;;;;13.23;3.40;;;;;;;;;;5019135;28;20266;-68
2024/01/24 16:06:04;;;;;;;12.03;2.50;;;;;;;;;;5019054;28;20237;-68
2024/01/24 16:08:33;;;;;;;9.43;2.77;;;;;;;;;;5018338;28;20218;-68
2024/01/24 16:11:02;;;;;;;6.17;1.27;;;;;;;;;;5035241;28;20538;-67
2024/01/24 16:13:29;;;;;;;5.97;1.77;;;;;;;;;;5036606;28;20653;-68
2024/01/24 16:15:56;;;;;;;12.13;2.50;;;;;;;;;;5035655;28;20507;-68
2024/01/24 16:18:23;;;;;;;9.97;2.37;;;;;;;;;;5036640;28;20191;-68
2024/01/24 16:20:50;;;;;;;11.50;2.37;;;;;;;;;;5038259;28;20580;-68
2024/01/24 16:23:16;;;;;;;12.17;2.47;;;;;;;;;;5055999;28;20194;-67
2024/01/24 16:25:43;;;;;;;8.93;1.87;;;;;;;;;;5054731;28;20534;-67